sensor_id;sensor_type;location;lat;lon;timestamp;P1;durP1;ratioP1;P2;durP2;ratioP2
64887;SDS011;51386;53.082;8.816;2022-12-18T00:01:20;37.60;;;22.40;;
64887;SDS011;51386;53.082;8.816;2022-12-18T00:03:50;35.77;;;22.47;;
64887;SDS011;51386;53.082;8.816;2022-12-18T00:06:19;37.20;;;23.07;;
64887;SDS011;51386;53.082;8.816;2022-12-18T00:08:48;37.93;;;22.83;;
64887;SDS011;51386;53.082;8.816;2022-12-18T00:11:15;33.80;;;21.73;;
64887;SDS011;51386;53.082;8.816;2022-12-18T00:13:45;38.43;;;23.63;;
64887;SDS011;51386;53.082;8.816;2022-12-18T00:16:16;36.13;;;21.87;;
64887;SDS011;51386;53.082;8.816;2022-12-18T00:18:46;35.70;;;21.87;;
64887;SDS011;51386;53.082;8.816;2022-12-18T00:21:14;28.40;;;19.60;;
64887;SDS011;51386;53.082;8.816;2022-12-18T00:23:43;37.83;;;22.77;;
64887;SDS011;51386;53.082;8.816;2022-12-18T00:26:11;33.80;;;22.43;;
64887;SDS011;51386;53.082;8.816;2022-12-18T00:28:41;35.30;;;22.03;;
64887;SDS011;51386;53.082;8.816;2022-12-18T00:31:09;36.03;;;21.30;;
64887;SDS011;51386;53.082;8.816;2022-12-18T00:33:40;38.07;;;21.60;;
64887;SDS011;51386;53.082;8.816;2022-12-18T00:36:09;37.37;;;22.17;;
64887;SDS011;51386;53.082;8.816;2022-12-18T00:38:39;31.67;;;21.07;;
64887;SDS011;51386;53.082;8.816;2022-12-18T00:41:09;33.20;;;20.83;;
64887;SDS011;51386;53.082;8.816;2022-12-18T00:43:38;36.50;;;21.07;;
64887;SDS011;51386;53.082;8.816;2022-12-18T00:46:06;37.07;;;20.97;;
64887;SDS011;51386;53.082;8.816;2022-12-18T00:48:34;35.20;;;22.37;;
64887;SDS011;51386;53.082;8.816;2022-12-18T00:51:03;34.60;;;20.47;;
64887;SDS011;51386;53.082;8.816;2022-12-18T00:53:30;33.17;;;20.20;;
64887;SDS011;51386;53.082;8.816;2022-12-18T00:55:57;35.03;;;21.63;;
64887;SDS011;51386;53.082;8.816;2022-12-18T00:58:24;34.57;;;22.00;;
64887;SDS011;51386;53.082;8.816;2022-12-18T01:00:51;33.83;;;20.17;;
64887;SDS011;51386;53.082;8.816;2022-12-18T01:03:18;34.53;;;20.73;;
64887;SDS011;51386;53.082;8.816;2022-12-18T01:05:45;32.03;;;20.93;;
64887;SDS011;51386;53.082;8.816;2022-12-18T01:08:13;31.50;;;19.30;;
64887;SDS011;51386;53.082;8.816;2022-12-18T01:10:42;32.63;;;19.83;;
64887;SDS011;51386;53.082;8.816;2022-12-18T01:13:09;29.77;;;20.53;;
64887;SDS011;51386;53.082;8.816;2022-12-18T01:15:35;30.17;;;19.57;;
64887;SDS011;51386;53.082;8.816;2022-12-18T01:18:03;31.23;;;19.20;;
64887;SDS011;51386;53.082;8.816;2022-12-18T01:20:30;28.93;;;17.23;;
64887;SDS011;51386;53.082;8.816;2022-12-18T01:22:57;29.80;;;20.03;;
64887;SDS011;51386;53.082;8.816;2022-12-18T01:25:25;34.77;;;20.17;;
64887;SDS011;51386;53.082;8.816;2022-12-18T01:27:52;29.97;;;20.03;;
64887;SDS011;51386;53.082;8.816;2022-12-18T01:30:19;37.60;;;19.33;;
64887;SDS011;51386;53.082;8.816;2022-12-18T01:32:46;29.43;;;18.70;;
64887;SDS011;51386;53.082;8.816;2022-12-18T01:35:13;29.93;;;17.73;;
64887;SDS011;51386;53.082;8.816;2022-12-18T01:37:41;34.83;;;16.97;;
64887;SDS011;51386;53.082;8.816;2022-12-18T01:40:08;28.93;;;18.17;;
64887;SDS011;51386;53.082;8.816;2022-12-18T01:42:37;25.47;;;17.43;;
64887;SDS011;51386;53.082;8.816;2022-12-18T01:45:21;29.47;;;18.27;;
64887;SDS011;51386;53.082;8.816;2022-12-18T01:47:54;29.20;;;17.93;;
64887;SDS011;51386;53.082;8.816;2022-12-18T01:50:25;29.57;;;18.23;;
64887;SDS011;51386;53.082;8.816;2022-12-18T01:52:59;30.47;;;18.23;;
64887;SDS011;51386;53.082;8.816;2022-12-18T01:55:32;27.80;;;17.93;;
64887;SDS011;51386;53.082;8.816;2022-12-18T01:58:07;27.97;;;18.00;;
64887;SDS011;51386;53.082;8.816;2022-12-18T02:00:36;28.67;;;17.37;;
64887;SDS011;51386;53.082;8.816;2022-12-18T02:03:03;25.60;;;17.90;;
64887;SDS011;51386;53.082;8.816;2022-12-18T02:05:36;24.97;;;16.77;;
64887;SDS011;51386;53.082;8.816;2022-12-18T02:08:12;27.70;;;17.47;;
64887;SDS011;51386;53.082;8.816;2022-12-18T02:10:48;25.33;;;16.63;;
64887;SDS011;51386;53.082;8.816;2022-12-18T02:13:26;28.10;;;17.77;;
64887;SDS011;51386;53.082;8.816;2022-12-18T02:16:08;33.17;;;19.17;;
64887;SDS011;51386;53.082;8.816;2022-12-18T02:18:51;28.20;;;17.27;;
64887;SDS011;51386;53.082;8.816;2022-12-18T02:21:26;24.73;;;16.67;;
64887;SDS011;51386;53.082;8.816;2022-12-18T02:24:10;28.30;;;18.33;;
64887;SDS011;51386;53.082;8.816;2022-12-18T02:26:53;27.10;;;17.27;;
64887;SDS011;51386;53.082;8.816;2022-12-18T02:29:25;29.13;;;17.97;;
64887;SDS011;51386;53.082;8.816;2022-12-18T02:31:58;26.03;;;16.27;;
64887;SDS011;51386;53.082;8.816;2022-12-18T02:34:29;22.93;;;14.97;;
64887;SDS011;51386;53.082;8.816;2022-12-18T02:37:03;24.73;;;17.43;;
64887;SDS011;51386;53.082;8.816;2022-12-18T02:39:36;29.30;;;17.03;;
64887;SDS011;51386;53.082;8.816;2022-12-18T02:42:09;24.20;;;15.93;;
64887;SDS011;51386;53.082;8.816;2022-12-18T02:44:41;29.47;;;17.27;;
64887;SDS011;51386;53.082;8.816;2022-12-18T02:47:11;23.87;;;15.53;;
64887;SDS011;51386;53.082;8.816;2022-12-18T02:49:42;27.53;;;16.60;;
64887;SDS011;51386;53.082;8.816;2022-12-18T02:52:25;29.23;;;17.10;;
64887;SDS011;51386;53.082;8.816;2022-12-18T02:55:05;21.23;;;14.43;;
64887;SDS011;51386;53.082;8.816;2022-12-18T02:57:49;27.50;;;15.30;;
64887;SDS011;51386;53.082;8.816;2022-12-18T03:00:21;28.57;;;14.93;;
64887;SDS011;51386;53.082;8.816;2022-12-18T03:02:57;27.17;;;15.67;;
64887;SDS011;51386;53.082;8.816;2022-12-18T03:05:31;22.50;;;15.37;;
64887;SDS011;51386;53.082;8.816;2022-12-18T03:08:06;21.60;;;14.23;;
64887;SDS011;51386;53.082;8.816;2022-12-18T03:10:39;20.90;;;13.23;;
64887;SDS011;51386;53.082;8.816;2022-12-18T03:13:18;21.20;;;13.00;;
64887;SDS011;51386;53.082;8.816;2022-12-18T03:15:54;22.23;;;14.47;;
64887;SDS011;51386;53.082;8.816;2022-12-18T03:18:25;20.87;;;12.87;;
64887;SDS011;51386;53.082;8.816;2022-12-18T03:21:04;22.73;;;13.33;;
64887;SDS011;51386;53.082;8.816;2022-12-18T03:23:34;21.87;;;14.43;;
64887;SDS011;51386;53.082;8.816;2022-12-18T03:26:10;25.07;;;14.07;;
64887;SDS011;51386;53.082;8.816;2022-12-18T03:28:45;20.00;;;13.63;;
64887;SDS011;51386;53.082;8.816;2022-12-18T03:31:17;20.77;;;13.30;;
64887;SDS011;51386;53.082;8.816;2022-12-18T03:33:51;17.93;;;12.47;;
64887;SDS011;51386;53.082;8.816;2022-12-18T03:36:21;18.93;;;12.27;;
64887;SDS011;51386;53.082;8.816;2022-12-18T03:38:49;19.57;;;13.03;;
64887;SDS011;51386;53.082;8.816;2022-12-18T03:41:18;20.20;;;12.27;;
64887;SDS011;51386;53.082;8.816;2022-12-18T03:43:57;17.63;;;12.30;;
64887;SDS011;51386;53.082;8.816;2022-12-18T03:46:38;22.10;;;12.43;;
64887;SDS011;51386;53.082;8.816;2022-12-18T03:49:17;19.73;;;12.00;;
64887;SDS011;51386;53.082;8.816;2022-12-18T03:51:54;22.97;;;13.23;;
64887;SDS011;51386;53.082;8.816;2022-12-18T03:54:29;18.43;;;11.83;;
64887;SDS011;51386;53.082;8.816;2022-12-18T03:57:00;19.20;;;11.90;;
64887;SDS011;51386;53.082;8.816;2022-12-18T03:59:37;19.63;;;12.00;;
64887;SDS011;51386;53.082;8.816;2022-12-18T04:02:06;20.77;;;12.13;;
64887;SDS011;51386;53.082;8.816;2022-12-18T04:04:35;14.67;;;10.47;;
64887;SDS011;51386;53.082;8.816;2022-12-18T04:07:06;16.97;;;10.70;;
64887;SDS011;51386;53.082;8.816;2022-12-18T04:09:34;13.63;;;10.57;;
64887;SDS011;51386;53.082;8.816;2022-12-18T04:12:05;17.47;;;11.10;;
64887;SDS011;51386;53.082;8.816;2022-12-18T04:14:32;16.67;;;11.20;;
64887;SDS011;51386;53.082;8.816;2022-12-18T04:17:03;16.87;;;11.13;;
64887;SDS011;51386;53.082;8.816;2022-12-18T04:19:30;16.63;;;11.17;;
64887;SDS011;51386;53.082;8.816;2022-12-18T04:21:57;17.27;;;11.30;;
64887;SDS011;51386;53.082;8.816;2022-12-18T04:24:24;19.03;;;11.13;;
64887;SDS011;51386;53.082;8.816;2022-12-18T04:26:51;19.03;;;11.07;;
64887;SDS011;51386;53.082;8.816;2022-12-18T04:29:18;19.60;;;11.43;;
64887;SDS011;51386;53.082;8.816;2022-12-18T04:31:45;18.30;;;10.90;;
64887;SDS011;51386;53.082;8.816;2022-12-18T04:34:13;19.47;;;11.57;;
64887;SDS011;51386;53.082;8.816;2022-12-18T04:36:40;17.03;;;10.43;;
64887;SDS011;51386;53.082;8.816;2022-12-18T04:39:07;16.40;;;10.87;;
64887;SDS011;51386;53.082;8.816;2022-12-18T04:41:34;20.23;;;11.43;;
64887;SDS011;51386;53.082;8.816;2022-12-18T04:44:01;15.10;;;10.20;;
64887;SDS011;51386;53.082;8.816;2022-12-18T04:46:28;12.93;;;9.47;;
64887;SDS011;51386;53.082;8.816;2022-12-18T04:48:55;18.87;;;10.97;;
64887;SDS011;51386;53.082;8.816;2022-12-18T04:51:24;17.00;;;10.83;;
64887;SDS011;51386;53.082;8.816;2022-12-18T04:53:52;18.97;;;10.77;;
64887;SDS011;51386;53.082;8.816;2022-12-18T04:56:19;18.07;;;11.13;;
64887;SDS011;51386;53.082;8.816;2022-12-18T04:58:46;16.73;;;10.23;;
64887;SDS011;51386;53.082;8.816;2022-12-18T05:01:14;15.97;;;10.57;;
64887;SDS011;51386;53.082;8.816;2022-12-18T05:03:43;16.67;;;10.23;;
64887;SDS011;51386;53.082;8.816;2022-12-18T05:06:11;15.53;;;9.90;;
64887;SDS011;51386;53.082;8.816;2022-12-18T05:08:39;16.97;;;10.13;;
64887;SDS011;51386;53.082;8.816;2022-12-18T05:11:07;15.27;;;10.20;;
64887;SDS011;51386;53.082;8.816;2022-12-18T05:13:37;14.17;;;10.43;;
64887;SDS011;51386;53.082;8.816;2022-12-18T05:16:06;18.87;;;9.80;;
64887;SDS011;51386;53.082;8.816;2022-12-18T05:18:33;15.13;;;9.83;;
64887;SDS011;51386;53.082;8.816;2022-12-18T05:21:01;15.87;;;9.57;;
64887;SDS011;51386;53.082;8.816;2022-12-18T05:23:29;15.77;;;8.87;;
64887;SDS011;51386;53.082;8.816;2022-12-18T05:25:58;13.73;;;9.37;;
64887;SDS011;51386;53.082;8.816;2022-12-18T05:28:29;14.07;;;8.87;;
64887;SDS011;51386;53.082;8.816;2022-12-18T05:30:58;12.87;;;9.10;;
64887;SDS011;51386;53.082;8.816;2022-12-18T05:33:29;17.20;;;10.00;;
64887;SDS011;51386;53.082;8.816;2022-12-18T05:36:00;15.77;;;9.80;;
64887;SDS011;51386;53.082;8.816;2022-12-18T05:38:30;14.43;;;9.43;;
64887;SDS011;51386;53.082;8.816;2022-12-18T05:41:00;18.60;;;10.23;;
64887;SDS011;51386;53.082;8.816;2022-12-18T05:43:28;14.40;;;9.20;;
64887;SDS011;51386;53.082;8.816;2022-12-18T05:45:55;15.53;;;9.40;;
64887;SDS011;51386;53.082;8.816;2022-12-18T05:48:23;11.87;;;8.23;;
64887;SDS011;51386;53.082;8.816;2022-12-18T05:50:51;14.57;;;9.53;;
64887;SDS011;51386;53.082;8.816;2022-12-18T05:53:18;13.23;;;9.57;;
64887;SDS011;51386;53.082;8.816;2022-12-18T05:55:46;13.57;;;9.20;;
64887;SDS011;51386;53.082;8.816;2022-12-18T05:58:15;15.53;;;9.33;;
64887;SDS011;51386;53.082;8.816;2022-12-18T06:00:43;14.77;;;9.53;;
64887;SDS011;51386;53.082;8.816;2022-12-18T06:03:12;18.10;;;9.13;;
64887;SDS011;51386;53.082;8.816;2022-12-18T06:05:41;15.93;;;9.70;;
64887;SDS011;51386;53.082;8.816;2022-12-18T06:08:10;13.70;;;9.47;;
64887;SDS011;51386;53.082;8.816;2022-12-18T06:10:39;14.67;;;9.23;;
64887;SDS011;51386;53.082;8.816;2022-12-18T06:13:07;14.20;;;9.67;;
64887;SDS011;51386;53.082;8.816;2022-12-18T06:15:37;15.57;;;8.90;;
64887;SDS011;51386;53.082;8.816;2022-12-18T06:18:04;16.33;;;10.03;;
64887;SDS011;51386;53.082;8.816;2022-12-18T06:20:31;12.80;;;9.47;;
64887;SDS011;51386;53.082;8.816;2022-12-18T06:22:59;11.93;;;8.23;;
64887;SDS011;51386;53.082;8.816;2022-12-18T06:25:26;13.60;;;8.70;;
64887;SDS011;51386;53.082;8.816;2022-12-18T06:27:53;11.33;;;8.57;;
64887;SDS011;51386;53.082;8.816;2022-12-18T06:30:20;16.53;;;9.60;;
64887;SDS011;51386;53.082;8.816;2022-12-18T06:32:50;12.90;;;8.90;;
64887;SDS011;51386;53.082;8.816;2022-12-18T06:35:22;12.83;;;8.73;;
64887;SDS011;51386;53.082;8.816;2022-12-18T06:37:49;14.40;;;9.43;;
64887;SDS011;51386;53.082;8.816;2022-12-18T06:40:17;15.33;;;9.93;;
64887;SDS011;51386;53.082;8.816;2022-12-18T06:42:44;13.53;;;9.33;;
64887;SDS011;51386;53.082;8.816;2022-12-18T06:45:11;13.50;;;9.00;;
64887;SDS011;51386;53.082;8.816;2022-12-18T06:47:38;12.93;;;8.43;;
64887;SDS011;51386;53.082;8.816;2022-12-18T06:50:07;14.43;;;9.47;;
64887;SDS011;51386;53.082;8.816;2022-12-18T06:52:34;15.87;;;9.27;;
64887;SDS011;51386;53.082;8.816;2022-12-18T06:55:01;12.93;;;9.13;;
64887;SDS011;51386;53.082;8.816;2022-12-18T06:57:29;12.93;;;8.77;;
64887;SDS011;51386;53.082;8.816;2022-12-18T06:59:56;14.27;;;8.83;;
64887;SDS011;51386;53.082;8.816;2022-12-18T07:02:23;13.07;;;8.57;;
64887;SDS011;51386;53.082;8.816;2022-12-18T07:04:50;12.77;;;8.37;;
64887;SDS011;51386;53.082;8.816;2022-12-18T07:07:18;15.97;;;10.20;;
64887;SDS011;51386;53.082;8.816;2022-12-18T07:09:45;14.43;;;8.50;;
64887;SDS011;51386;53.082;8.816;2022-12-18T07:12:12;16.00;;;9.27;;
64887;SDS011;51386;53.082;8.816;2022-12-18T07:14:39;18.60;;;9.47;;
64887;SDS011;51386;53.082;8.816;2022-12-18T07:17:06;11.87;;;8.93;;
64887;SDS011;51386;53.082;8.816;2022-12-18T07:19:33;12.57;;;8.63;;
64887;SDS011;51386;53.082;8.816;2022-12-18T07:22:00;16.57;;;9.00;;
64887;SDS011;51386;53.082;8.816;2022-12-18T07:24:29;12.87;;;8.90;;
64887;SDS011;51386;53.082;8.816;2022-12-18T07:26:56;15.90;;;9.13;;
64887;SDS011;51386;53.082;8.816;2022-12-18T07:29:23;13.17;;;8.77;;
64887;SDS011;51386;53.082;8.816;2022-12-18T07:31:50;14.07;;;8.93;;
64887;SDS011;51386;53.082;8.816;2022-12-18T07:34:17;11.37;;;8.37;;
64887;SDS011;51386;53.082;8.816;2022-12-18T07:36:44;16.80;;;9.23;;
64887;SDS011;51386;53.082;8.816;2022-12-18T07:39:11;12.43;;;8.63;;
64887;SDS011;51386;53.082;8.816;2022-12-18T07:41:40;14.10;;;9.23;;
64887;SDS011;51386;53.082;8.816;2022-12-18T07:44:12;13.87;;;9.47;;
64887;SDS011;51386;53.082;8.816;2022-12-18T07:46:40;15.03;;;8.93;;
64887;SDS011;51386;53.082;8.816;2022-12-18T07:49:06;13.63;;;9.67;;
64887;SDS011;51386;53.082;8.816;2022-12-18T07:51:33;12.03;;;8.67;;
64887;SDS011;51386;53.082;8.816;2022-12-18T07:54:00;18.83;;;9.90;;
64887;SDS011;51386;53.082;8.816;2022-12-18T07:56:27;14.77;;;9.17;;
64887;SDS011;51386;53.082;8.816;2022-12-18T07:58:58;11.27;;;8.13;;
64887;SDS011;51386;53.082;8.816;2022-12-18T08:01:26;14.47;;;9.30;;
64887;SDS011;51386;53.082;8.816;2022-12-18T08:03:53;15.93;;;8.93;;
64887;SDS011;51386;53.082;8.816;2022-12-18T08:06:20;15.53;;;9.23;;
64887;SDS011;51386;53.082;8.816;2022-12-18T08:08:50;13.77;;;8.80;;
64887;SDS011;51386;53.082;8.816;2022-12-18T08:11:18;12.23;;;8.40;;
64887;SDS011;51386;53.082;8.816;2022-12-18T08:13:46;12.17;;;8.40;;
64887;SDS011;51386;53.082;8.816;2022-12-18T08:16:16;13.63;;;8.73;;
64887;SDS011;51386;53.082;8.816;2022-12-18T08:18:44;14.17;;;9.47;;
64887;SDS011;51386;53.082;8.816;2022-12-18T08:21:13;13.40;;;8.80;;
64887;SDS011;51386;53.082;8.816;2022-12-18T08:23:45;12.83;;;8.53;;
64887;SDS011;51386;53.082;8.816;2022-12-18T08:26:14;14.47;;;9.10;;
64887;SDS011;51386;53.082;8.816;2022-12-18T08:28:42;15.43;;;9.43;;
64887;SDS011;51386;53.082;8.816;2022-12-18T08:31:09;13.00;;;8.63;;
64887;SDS011;51386;53.082;8.816;2022-12-18T08:33:39;12.87;;;8.70;;
64887;SDS011;51386;53.082;8.816;2022-12-18T08:36:08;14.77;;;8.97;;
64887;SDS011;51386;53.082;8.816;2022-12-18T08:38:37;12.80;;;8.53;;
64887;SDS011;51386;53.082;8.816;2022-12-18T08:41:05;14.50;;;9.17;;
64887;SDS011;51386;53.082;8.816;2022-12-18T08:43:34;11.27;;;8.13;;
64887;SDS011;51386;53.082;8.816;2022-12-18T08:46:20;12.10;;;8.23;;
64887;SDS011;51386;53.082;8.816;2022-12-18T08:48:51;17.63;;;10.50;;
64887;SDS011;51386;53.082;8.816;2022-12-18T08:51:20;13.00;;;8.93;;
64887;SDS011;51386;53.082;8.816;2022-12-18T08:53:47;13.97;;;9.80;;
64887;SDS011;51386;53.082;8.816;2022-12-18T08:56:14;15.60;;;10.17;;
64887;SDS011;51386;53.082;8.816;2022-12-18T08:58:42;14.40;;;9.43;;
64887;SDS011;51386;53.082;8.816;2022-12-18T09:01:10;15.17;;;8.90;;
64887;SDS011;51386;53.082;8.816;2022-12-18T09:03:39;17.00;;;10.03;;
64887;SDS011;51386;53.082;8.816;2022-12-18T09:06:08;13.53;;;9.87;;
64887;SDS011;51386;53.082;8.816;2022-12-18T09:08:39;13.27;;;9.83;;
64887;SDS011;51386;53.082;8.816;2022-12-18T09:11:10;13.77;;;9.07;;
64887;SDS011;51386;53.082;8.816;2022-12-18T09:13:45;12.83;;;9.27;;
64887;SDS011;51386;53.082;8.816;2022-12-18T09:16:12;14.63;;;9.37;;
64887;SDS011;51386;53.082;8.816;2022-12-18T09:18:39;14.33;;;9.03;;
64887;SDS011;51386;53.082;8.816;2022-12-18T09:21:08;18.63;;;8.63;;
64887;SDS011;51386;53.082;8.816;2022-12-18T09:23:37;15.20;;;9.30;;
64887;SDS011;51386;53.082;8.816;2022-12-18T09:26:04;13.43;;;9.20;;
64887;SDS011;51386;53.082;8.816;2022-12-18T09:28:32;14.13;;;10.00;;
64887;SDS011;51386;53.082;8.816;2022-12-18T09:31:02;13.93;;;9.07;;
64887;SDS011;51386;53.082;8.816;2022-12-18T09:33:33;15.60;;;9.10;;
64887;SDS011;51386;53.082;8.816;2022-12-18T09:36:02;13.77;;;8.80;;
64887;SDS011;51386;53.082;8.816;2022-12-18T09:38:33;13.30;;;9.50;;
64887;SDS011;51386;53.082;8.816;2022-12-18T09:41:03;16.03;;;9.50;;
64887;SDS011;51386;53.082;8.816;2022-12-18T09:43:42;12.77;;;9.20;;
64887;SDS011;51386;53.082;8.816;2022-12-18T09:46:16;14.77;;;9.87;;
64887;SDS011;51386;53.082;8.816;2022-12-18T09:48:56;17.47;;;9.33;;
64887;SDS011;51386;53.082;8.816;2022-12-18T09:51:32;16.10;;;9.43;;
64887;SDS011;51386;53.082;8.816;2022-12-18T09:54:11;12.73;;;9.03;;
64887;SDS011;51386;53.082;8.816;2022-12-18T09:56:44;13.17;;;8.70;;
64887;SDS011;51386;53.082;8.816;2022-12-18T09:59:15;13.10;;;8.80;;
64887;SDS011;51386;53.082;8.816;2022-12-18T10:01:50;13.63;;;8.47;;
64887;SDS011;51386;53.082;8.816;2022-12-18T10:04:17;13.13;;;8.60;;
64887;SDS011;51386;53.082;8.816;2022-12-18T10:06:46;15.20;;;9.57;;
64887;SDS011;51386;53.082;8.816;2022-12-18T10:09:25;12.97;;;9.13;;
64887;SDS011;51386;53.082;8.816;2022-12-18T10:12:05;12.97;;;9.13;;
64887;SDS011;51386;53.082;8.816;2022-12-18T10:14:43;13.73;;;9.23;;
64887;SDS011;51386;53.082;8.816;2022-12-18T10:17:21;18.10;;;9.77;;
64887;SDS011;51386;53.082;8.816;2022-12-18T10:20:02;12.63;;;8.87;;
64887;SDS011;51386;53.082;8.816;2022-12-18T10:22:43;12.27;;;8.97;;
64887;SDS011;51386;53.082;8.816;2022-12-18T10:25:22;16.27;;;9.97;;
64887;SDS011;51386;53.082;8.816;2022-12-18T10:27:55;14.93;;;8.97;;
64887;SDS011;51386;53.082;8.816;2022-12-18T10:30:33;14.70;;;9.07;;
64887;SDS011;51386;53.082;8.816;2022-12-18T10:33:00;13.30;;;8.83;;
64887;SDS011;51386;53.082;8.816;2022-12-18T10:35:28;11.97;;;8.93;;
64887;SDS011;51386;53.082;8.816;2022-12-18T10:37:59;12.80;;;8.20;;
64887;SDS011;51386;53.082;8.816;2022-12-18T10:40:36;18.53;;;9.83;;
64887;SDS011;51386;53.082;8.816;2022-12-18T10:43:19;12.30;;;9.43;;
64887;SDS011;51386;53.082;8.816;2022-12-18T10:48:52;14.23;;;9.47;;
64887;SDS011;51386;53.082;8.816;2022-12-18T10:51:23;11.83;;;8.93;;
64887;SDS011;51386;53.082;8.816;2022-12-18T10:53:57;14.30;;;9.00;;
64887;SDS011;51386;53.082;8.816;2022-12-18T10:56:31;15.60;;;9.30;;
64887;SDS011;51386;53.082;8.816;2022-12-18T10:59:02;13.13;;;9.43;;
64887;SDS011;51386;53.082;8.816;2022-12-18T11:01:44;15.43;;;9.50;;
64887;SDS011;51386;53.082;8.816;2022-12-18T11:04:17;13.30;;;9.63;;
64887;SDS011;51386;53.082;8.816;2022-12-18T11:06:54;17.50;;;9.90;;
64887;SDS011;51386;53.082;8.816;2022-12-18T11:09:25;14.20;;;10.13;;
64887;SDS011;51386;53.082;8.816;2022-12-18T11:11:55;13.50;;;9.40;;
64887;SDS011;51386;53.082;8.816;2022-12-18T11:14:26;13.03;;;9.63;;
64887;SDS011;51386;53.082;8.816;2022-12-18T11:16:58;13.73;;;8.87;;
64887;SDS011;51386;53.082;8.816;2022-12-18T11:19:51;12.90;;;9.20;;
64887;SDS011;51386;53.082;8.816;2022-12-18T11:22:23;14.40;;;9.60;;
64887;SDS011;51386;53.082;8.816;2022-12-18T11:24:55;12.17;;;8.67;;
64887;SDS011;51386;53.082;8.816;2022-12-18T11:27:50;13.43;;;8.33;;
64887;SDS011;51386;53.082;8.816;2022-12-18T11:30:22;11.67;;;8.90;;
64887;SDS011;51386;53.082;8.816;2022-12-18T11:32:54;11.20;;;8.83;;
64887;SDS011;51386;53.082;8.816;2022-12-18T11:35:32;12.27;;;8.40;;
64887;SDS011;51386;53.082;8.816;2022-12-18T11:38:12;13.70;;;8.67;;
64887;SDS011;51386;53.082;8.816;2022-12-18T11:40:51;16.07;;;8.93;;
64887;SDS011;51386;53.082;8.816;2022-12-18T11:43:27;10.40;;;8.13;;
64887;SDS011;51386;53.082;8.816;2022-12-18T11:46:02;11.57;;;7.70;;
64887;SDS011;51386;53.082;8.816;2022-12-18T11:48:43;12.30;;;8.47;;
64887;SDS011;51386;53.082;8.816;2022-12-18T11:51:19;11.30;;;8.00;;
64887;SDS011;51386;53.082;8.816;2022-12-18T11:53:55;10.67;;;8.67;;
64887;SDS011;51386;53.082;8.816;2022-12-18T11:56:26;11.57;;;8.03;;
64887;SDS011;51386;53.082;8.816;2022-12-18T11:59:02;9.83;;;7.37;;
64887;SDS011;51386;53.082;8.816;2022-12-18T12:01:44;11.43;;;7.33;;
64887;SDS011;51386;53.082;8.816;2022-12-18T12:04:32;13.40;;;7.53;;
64887;SDS011;51386;53.082;8.816;2022-12-18T12:07:21;10.83;;;6.97;;
64887;SDS011;51386;53.082;8.816;2022-12-18T12:10:06;10.00;;;7.40;;
64887;SDS011;51386;53.082;8.816;2022-12-18T12:12:53;9.87;;;7.17;;
64887;SDS011;51386;53.082;8.816;2022-12-18T12:15:41;9.33;;;6.73;;
64887;SDS011;51386;53.082;8.816;2022-12-18T12:18:27;13.37;;;7.13;;
64887;SDS011;51386;53.082;8.816;2022-12-18T12:21:10;8.77;;;6.37;;
64887;SDS011;51386;53.082;8.816;2022-12-18T12:23:51;9.73;;;6.57;;
64887;SDS011;51386;53.082;8.816;2022-12-18T12:26:29;9.73;;;7.00;;
64887;SDS011;51386;53.082;8.816;2022-12-18T12:29:10;11.93;;;7.37;;
64887;SDS011;51386;53.082;8.816;2022-12-18T12:32:00;10.13;;;6.90;;
64887;SDS011;51386;53.082;8.816;2022-12-18T12:34:45;9.83;;;7.50;;
64887;SDS011;51386;53.082;8.816;2022-12-18T12:37:37;11.93;;;6.60;;
64887;SDS011;51386;53.082;8.816;2022-12-18T12:40:18;9.40;;;6.77;;
64887;SDS011;51386;53.082;8.816;2022-12-18T12:43:16;8.40;;;6.97;;
64887;SDS011;51386;53.082;8.816;2022-12-18T12:45:53;8.20;;;6.90;;
64887;SDS011;51386;53.082;8.816;2022-12-18T12:48:31;9.97;;;7.23;;
64887;SDS011;51386;53.082;8.816;2022-12-18T12:51:09;9.07;;;7.63;;
64887;SDS011;51386;53.082;8.816;2022-12-18T12:53:42;10.43;;;7.70;;
64887;SDS011;51386;53.082;8.816;2022-12-18T12:56:11;9.33;;;7.17;;
64887;SDS011;51386;53.082;8.816;2022-12-18T12:58:46;12.70;;;7.97;;
64887;SDS011;51386;53.082;8.816;2022-12-18T13:01:28;9.60;;;7.97;;
64887;SDS011;51386;53.082;8.816;2022-12-18T13:04:14;9.80;;;7.40;;
64887;SDS011;51386;53.082;8.816;2022-12-18T13:06:53;11.77;;;8.23;;
64887;SDS011;51386;53.082;8.816;2022-12-18T13:09:32;11.30;;;9.23;;
64887;SDS011;51386;53.082;8.816;2022-12-18T13:12:04;11.87;;;8.20;;
64887;SDS011;51386;53.082;8.816;2022-12-18T13:15:19;12.47;;;8.50;;
64887;SDS011;51386;53.082;8.816;2022-12-18T13:18:02;12.10;;;9.33;;
64887;SDS011;51386;53.082;8.816;2022-12-18T13:20:39;11.73;;;8.37;;
64887;SDS011;51386;53.082;8.816;2022-12-18T13:28:58;11.70;;;8.47;;
64887;SDS011;51386;53.082;8.816;2022-12-18T13:34:27;14.20;;;8.83;;
64887;SDS011;51386;53.082;8.816;2022-12-18T13:43:27;14.97;;;8.50;;
64887;SDS011;51386;53.082;8.816;2022-12-18T13:46:04;12.97;;;9.03;;
64887;SDS011;51386;53.082;8.816;2022-12-18T13:48:50;14.87;;;8.77;;
64887;SDS011;51386;53.082;8.816;2022-12-18T13:51:22;12.60;;;7.77;;
64887;SDS011;51386;53.082;8.816;2022-12-18T13:53:53;11.03;;;8.27;;
64887;SDS011;51386;53.082;8.816;2022-12-18T13:56:24;11.60;;;8.87;;
64887;SDS011;51386;53.082;8.816;2022-12-18T13:59:05;10.90;;;8.23;;
64887;SDS011;51386;53.082;8.816;2022-12-18T14:01:47;11.23;;;8.23;;
64887;SDS011;51386;53.082;8.816;2022-12-18T14:04:22;12.50;;;8.50;;
64887;SDS011;51386;53.082;8.816;2022-12-18T14:06:53;14.53;;;8.13;;
64887;SDS011;51386;53.082;8.816;2022-12-18T14:09:27;10.90;;;8.20;;
64887;SDS011;51386;53.082;8.816;2022-12-18T14:12:48;12.57;;;7.57;;
64887;SDS011;51386;53.082;8.816;2022-12-18T14:15:30;11.63;;;8.03;;
64887;SDS011;51386;53.082;8.816;2022-12-18T14:18:01;12.43;;;7.27;;
64887;SDS011;51386;53.082;8.816;2022-12-18T14:20:45;14.00;;;8.00;;
64887;SDS011;51386;53.082;8.816;2022-12-18T14:23:25;9.97;;;7.67;;
64887;SDS011;51386;53.082;8.816;2022-12-18T14:25:57;12.33;;;8.30;;
64887;SDS011;51386;53.082;8.816;2022-12-18T14:28:30;10.50;;;7.83;;
64887;SDS011;51386;53.082;8.816;2022-12-18T14:30:58;9.33;;;7.67;;
64887;SDS011;51386;53.082;8.816;2022-12-18T14:33:26;11.57;;;8.30;;
64887;SDS011;51386;53.082;8.816;2022-12-18T14:35:55;10.77;;;7.73;;
64887;SDS011;51386;53.082;8.816;2022-12-18T14:38:27;10.53;;;7.93;;
64887;SDS011;51386;53.082;8.816;2022-12-18T14:40:58;9.10;;;7.17;;
64887;SDS011;51386;53.082;8.816;2022-12-18T14:43:28;14.63;;;8.97;;
64887;SDS011;51386;53.082;8.816;2022-12-18T14:45:59;11.33;;;7.70;;
64887;SDS011;51386;53.082;8.816;2022-12-18T14:48:33;14.33;;;8.07;;
64887;SDS011;51386;53.082;8.816;2022-12-18T14:51:05;12.20;;;7.63;;
64887;SDS011;51386;53.082;8.816;2022-12-18T14:53:42;15.83;;;8.60;;
64887;SDS011;51386;53.082;8.816;2022-12-18T14:56:21;13.20;;;8.23;;
64887;SDS011;51386;53.082;8.816;2022-12-18T14:58:52;11.47;;;8.10;;
64887;SDS011;51386;53.082;8.816;2022-12-18T15:01:23;13.30;;;7.93;;
64887;SDS011;51386;53.082;8.816;2022-12-18T15:03:55;13.87;;;8.00;;
64887;SDS011;51386;53.082;8.816;2022-12-18T15:06:28;11.13;;;7.80;;
64887;SDS011;51386;53.082;8.816;2022-12-18T15:09:00;11.73;;;8.00;;
64887;SDS011;51386;53.082;8.816;2022-12-18T15:11:36;12.07;;;8.13;;
64887;SDS011;51386;53.082;8.816;2022-12-18T15:14:21;13.57;;;8.67;;
64887;SDS011;51386;53.082;8.816;2022-12-18T15:17:02;13.07;;;7.87;;
64887;SDS011;51386;53.082;8.816;2022-12-18T15:19:34;14.50;;;9.17;;